Time;durP1;ratioP1;P1;durP2;ratioP2;P2;SDS_P1;SDS_P2;PMS_P1;PMS_P2;Temp;Humidity;BMP_temperature;BMP_pressure;BME280_temperature;BME280_humidity;BME280_pressure;Samples;Min_cycle;Max_cycle;Signal;HPM_P1;HPM_P2
2022/08/20 00:00:43;;;;;;;16.40;13.60;;;;;;;;;;5039442;28;20205;-74
2022/08/20 00:03:32;;;;;;;14.73;13.20;;;;;;;;;;5051008;28;20207;-73
2022/08/20 00:06:01;;;;;;;15.27;13.67;;;;;;;;;;5051238;28;20275;-74
2022/08/20 00:08:30;;;;;;;16.83;13.63;;;;;;;;;;5051231;28;20298;-74
2022/08/20 00:10:57;;;;;;;17.60;14.27;;;;;;;;;;5050878;28;20301;-74
2022/08/20 00:13:30;;;;;;;15.87;13.27;;;;;;;;;;5051135;28;20190;-74
2022/08/20 00:16:17;;;;;;;16.07;13.17;;;;;;;;;;5050304;28;20197;-74
2022/08/20 00:18:44;;;;;;;15.57;13.07;;;;;;;;;;5049571;28;20294;-74
2022/08/20 00:21:11;;;;;;;14.57;13.07;;;;;;;;;;5033345;28;20203;-74
2022/08/20 00:23:44;;;;;;;13.87;12.27;;;;;;;;;;5050744;28;20186;-74
2022/08/20 00:26:11;;;;;;;15.00;12.67;;;;;;;;;;5049743;28;20214;-73
2022/08/20 00:28:38;;;;;;;13.50;11.97;;;;;;;;;;5050754;28;20256;-74
2022/08/20 00:31:06;;;;;;;14.00;12.47;;;;;;;;;;5050995;28;20653;-74
2022/08/20 00:33:33;;;;;;;13.53;12.13;;;;;;;;;;5050444;28;20202;-75
2022/08/20 00:36:05;;;;;;;13.93;12.47;;;;;;;;;;5050944;28;20543;-73
2022/08/20 00:42:10;;;;;;;15.33;13.67;;;;;;;;;;5029880;28;20217;-73
2022/08/20 00:44:43;;;;;;;19.70;14.10;;;;;;;;;;5047578;28;20186;-74
2022/08/20 00:54:21;;;;;;;19.77;15.10;;;;;;;;;;5050369;28;20218;-73
2022/08/20 00:56:55;;;;;;;18.33;15.90;;;;;;;;;;5035858;28;20194;-73
2022/08/20 00:59:38;;;;;;;19.10;15.17;;;;;;;;;;5050372;28;20240;-73
2022/08/20 01:02:50;;;;;;;21.87;15.90;;;;;;;;;;5035946;28;20328;-73
2022/08/20 01:05:24;;;;;;;18.50;15.57;;;;;;;;;;5014846;28;20257;-73
2022/08/20 01:08:23;;;;;;;20.50;17.63;;;;;;;;;;5041534;28;20238;-73
2022/08/20 01:10:52;;;;;;;21.67;18.43;;;;;;;;;;5027454;28;20277;-73
2022/08/20 01:13:41;;;;;;;21.60;18.83;;;;;;;;;;5027521;28;20598;-73
2022/08/20 01:16:37;;;;;;;23.10;18.87;;;;;;;;;;5012205;28;20261;-73
2022/08/20 01:19:09;;;;;;;23.20;18.13;;;;;;;;;;5034722;28;20195;-73
2022/08/20 01:21:57;;;;;;;19.80;17.70;;;;;;;;;;5043863;28;20218;-74
2022/08/20 01:24:43;;;;;;;21.40;17.37;;;;;;;;;;5027537;28;20200;-73
2022/08/20 01:27:13;;;;;;;19.93;17.77;;;;;;;;;;5026983;28;20337;-74
2022/08/20 01:29:49;;;;;;;20.80;16.90;;;;;;;;;;5027920;28;20249;-74
2022/08/20 01:32:16;;;;;;;19.73;16.33;;;;;;;;;;5027204;28;20199;-75
2022/08/20 01:34:59;;;;;;;19.37;15.77;;;;;;;;;;5033489;28;20190;-76
2022/08/20 01:37:26;;;;;;;19.83;16.90;;;;;;;;;;5051780;28;20603;-76
2022/08/20 01:39:57;;;;;;;20.00;17.27;;;;;;;;;;5048935;28;20210;-76
2022/08/20 01:42:28;;;;;;;22.20;16.50;;;;;;;;;;5031760;28;20202;-77
2022/08/20 01:45:12;;;;;;;22.20;17.80;;;;;;;;;;5049488;28;20182;-77
2022/08/20 01:47:42;;;;;;;18.73;16.80;;;;;;;;;;5049734;28;20248;-77
2022/08/20 01:50:15;;;;;;;19.57;16.73;;;;;;;;;;5048216;28;20396;-78
2022/08/20 01:52:45;;;;;;;21.80;17.10;;;;;;;;;;5048643;28;20642;-77
2022/08/20 01:55:30;;;;;;;21.70;17.37;;;;;;;;;;5034515;28;20183;-78
2022/08/20 01:57:57;;;;;;;19.97;17.53;;;;;;;;;;5048411;28;20206;-77
2022/08/20 02:00:24;;;;;;;18.67;15.97;;;;;;;;;;5031212;28;20733;-77
2022/08/20 02:02:51;;;;;;;19.50;15.87;;;;;;;;;;5031547;28;20724;-77
2022/08/20 02:05:18;;;;;;;17.57;14.43;;;;;;;;;;5049170;28;20277;-77
2022/08/20 02:07:45;;;;;;;17.83;15.10;;;;;;;;;;5047869;28;20609;-77
2022/08/20 02:10:12;;;;;;;16.93;13.50;;;;;;;;;;5049377;28;20640;-77
2022/08/20 02:12:39;;;;;;;15.67;12.47;;;;;;;;;;5031234;28;20210;-77
2022/08/20 02:15:07;;;;;;;18.10;13.00;;;;;;;;;;5047806;28;20190;-76
2022/08/20 02:17:34;;;;;;;13.67;12.20;;;;;;;;;;5048993;28;20205;-77
2022/08/20 02:20:04;;;;;;;17.80;12.93;;;;;;;;;;5049103;28;20220;-77
2022/08/20 02:22:47;;;;;;;14.43;11.43;;;;;;;;;;5048166;28;20195;-77
2022/08/20 02:25:16;;;;;;;13.00;11.53;;;;;;;;;;5048189;28;20194;-77
2022/08/20 02:27:44;;;;;;;15.27;12.60;;;;;;;;;;5047783;28;20218;-77
2022/08/20 02:30:14;;;;;;;17.23;12.63;;;;;;;;;;5047948;28;20540;-77
2022/08/20 02:32:53;;;;;;;14.90;12.50;;;;;;;;;;5047851;28;20197;-77
2022/08/20 02:35:22;;;;;;;15.67;11.80;;;;;;;;;;5031668;28;20547;-77
2022/08/20 02:37:49;;;;;;;15.17;12.07;;;;;;;;;;5031383;28;20195;-76
2022/08/20 02:40:16;;;;;;;17.30;12.30;;;;;;;;;;5031481;28;20187;-77
2022/08/20 02:42:53;;;;;;;13.40;11.07;;;;;;;;;;5049057;28;20206;-77
2022/08/20 02:45:21;;;;;;;14.20;11.80;;;;;;;;;;5033846;28;20237;-77
2022/08/20 02:47:48;;;;;;;16.50;11.27;;;;;;;;;;5048063;28;20247;-77
2022/08/20 02:50:16;;;;;;;18.67;12.10;;;;;;;;;;5047060;28;20222;-78
2022/08/20 02:52:43;;;;;;;14.87;11.50;;;;;;;;;;5047094;28;20186;-77
2022/08/20 02:55:17;;;;;;;15.93;12.17;;;;;;;;;;5047262;28;20190;-77
2022/08/20 02:57:54;;;;;;;12.93;11.53;;;;;;;;;;5032321;28;20265;-77
2022/08/20 03:00:25;;;;;;;12.40;11.07;;;;;;;;;;5031369;28;20187;-77
2022/08/20 03:02:51;;;;;;;12.93;11.47;;;;;;;;;;5048742;28;20191;-77
2022/08/20 03:05:18;;;;;;;15.00;12.10;;;;;;;;;;5048336;28;20186;-77
2022/08/20 03:07:47;;;;;;;13.70;12.30;;;;;;;;;;5033612;28;20190;-77
2022/08/20 03:10:14;;;;;;;13.23;11.50;;;;;;;;;;5052453;28;20253;-77
2022/08/20 03:12:41;;;;;;;14.77;11.13;;;;;;;;;;5018444;28;20270;-78
2022/08/20 03:15:08;;;;;;;15.97;13.17;;;;;;;;;;5034728;28;20191;-77
2022/08/20 03:17:43;;;;;;;16.60;13.47;;;;;;;;;;5052106;28;20653;-77
2022/08/20 03:20:10;;;;;;;17.10;13.87;;;;;;;;;;5034688;28;20199;-77
2022/08/20 03:22:37;;;;;;;15.53;13.13;;;;;;;;;;5034767;28;20619;-77
2022/08/20 03:25:04;;;;;;;15.17;13.53;;;;;;;;;;5052128;28;20664;-77
2022/08/20 03:27:31;;;;;;;16.67;11.83;;;;;;;;;;5034247;28;20305;-77
2022/08/20 03:30:04;;;;;;;16.17;12.13;;;;;;;;;;5034958;28;20190;-76
2022/08/20 03:32:31;;;;;;;14.33;12.47;;;;;;;;;;5052388;28;20191;-76
2022/08/20 03:34:57;;;;;;;18.47;12.70;;;;;;;;;;5049725;28;20277;-77
2022/08/20 03:37:25;;;;;;;15.63;12.37;;;;;;;;;;5040169;28;20194;-77
2022/08/20 03:39:52;;;;;;;15.37;12.80;;;;;;;;;;5050817;28;20191;-77
2022/08/20 03:42:19;;;;;;;15.87;12.67;;;;;;;;;;5051049;28;20191;-76
2022/08/20 03:44:47;;;;;;;14.10;12.60;;;;;;;;;;5050571;28;20194;-77
2022/08/20 03:47:24;;;;;;;15.93;13.40;;;;;;;;;;5052195;28;20594;-77
2022/08/20 03:49:51;;;;;;;18.20;13.23;;;;;;;;;;5050662;28;20274;-76
2022/08/20 03:52:36;;;;;;;15.20;13.60;;;;;;;;;;5026590;28;20503;-76
2022/08/20 03:55:03;;;;;;;15.40;13.70;;;;;;;;;;5050222;28;20205;-76
2022/08/20 03:57:49;;;;;;;16.30;13.73;;;;;;;;;;5050776;28;20185;-76
2022/08/20 04:00:18;;;;;;;15.57;13.37;;;;;;;;;;5047552;28;20191;-76
2022/08/20 04:02:45;;;;;;;15.67;13.37;;;;;;;;;;5023346;28;20199;-77
2022/08/20 04:05:13;;;;;;;17.90;14.20;;;;;;;;;;5034051;28;20186;-77
2022/08/20 04:07:39;;;;;;;16.23;13.70;;;;;;;;;;5018289;28;20185;-76
2022/08/20 04:10:08;;;;;;;19.87;13.93;;;;;;;;;;5050351;28;20223;-76
2022/08/20 04:12:39;;;;;;;15.57;13.97;;;;;;;;;;5050366;28;20222;-76
2022/08/20 04:15:23;;;;;;;16.77;13.93;;;;;;;;;;5050275;28;20665;-76
2022/08/20 04:17:51;;;;;;;15.30;13.70;;;;;;;;;;5050271;28;20542;-76
2022/08/20 04:20:22;;;;;;;16.13;14.47;;;;;;;;;;5051434;28;20705;-76
2022/08/20 04:22:49;;;;;;;14.67;13.27;;;;;;;;;;5033627;28;20198;-76
2022/08/20 04:25:25;;;;;;;15.80;14.10;;;;;;;;;;5049927;28;20194;-77
2022/08/20 04:27:52;;;;;;;17.00;15.20;;;;;;;;;;5033869;28;20198;-76
2022/08/20 04:30:22;;;;;;;16.20;14.50;;;;;;;;;;5051234;28;20751;-76
2022/08/20 04:32:50;;;;;;;21.87;18.27;;;;;;;;;;5051259;28;20666;-77
2022/08/20 04:35:17;;;;;;;16.47;14.87;;;;;;;;;;5021946;28;20278;-76
2022/08/20 04:37:45;;;;;;;16.50;14.83;;;;;;;;;;5030506;28;20187;-76
2022/08/20 04:42:59;;;;;;;19.43;17.33;;;;;;;;;;5049759;28;20277;-76
2022/08/20 04:45:26;;;;;;;17.80;16.00;;;;;;;;;;5049325;28;20566;-75
2022/08/20 04:47:53;;;;;;;20.07;17.43;;;;;;;;;;5039782;28;20218;-73
2022/08/20 04:50:19;;;;;;;21.33;19.13;;;;;;;;;;5048300;28;20222;-76
2022/08/20 04:52:47;;;;;;;21.07;18.20;;;;;;;;;;5042199;28;20698;-73
2022/08/20 04:55:15;;;;;;;19.60;17.43;;;;;;;;;;5049497;28;21012;-77
2022/08/20 04:57:42;;;;;;;19.60;17.50;;;;;;;;;;5032914;28;20194;-76
2022/08/20 05:00:12;;;;;;;19.87;17.13;;;;;;;;;;5032620;28;20215;-75
2022/08/20 05:02:39;;;;;;;19.80;17.70;;;;;;;;;;5032653;28;20213;-75
2022/08/20 05:05:25;;;;;;;19.03;16.73;;;;;;;;;;5049973;28;20210;-74
2022/08/20 05:07:52;;;;;;;19.90;16.70;;;;;;;;;;5050424;28;20269;-76
2022/08/20 05:10:37;;;;;;;20.50;17.90;;;;;;;;;;5050427;28;20222;-72
2022/08/20 05:13:04;;;;;;;22.37;18.03;;;;;;;;;;5048632;28;20187;-73
2022/08/20 05:15:49;;;;;;;20.43;18.33;;;;;;;;;;5049141;28;20206;-74
2022/08/20 05:18:17;;;;;;;21.27;18.97;;;;;;;;;;5048710;28;20531;-73
2022/08/20 05:20:44;;;;;;;20.07;18.13;;;;;;;;;;5048218;28;20209;-76
2022/08/20 05:23:11;;;;;;;21.67;18.83;;;;;;;;;;5050354;28;20243;-74
2022/08/20 05:25:38;;;;;;;20.10;17.97;;;;;;;;;;5048994;28;20190;-71
2022/08/20 05:28:11;;;;;;;21.20;19.10;;;;;;;;;;5049818;28;20187;-75
2022/08/20 05:30:39;;;;;;;21.00;18.73;;;;;;;;;;5048949;28;20677;-75
2022/08/20 05:33:06;;;;;;;21.57;19.40;;;;;;;;;;5048280;28;20201;-76
2022/08/20 05:35:34;;;;;;;22.63;19.53;;;;;;;;;;5032075;28;20651;-74
2022/08/20 05:38:01;;;;;;;21.73;19.13;;;;;;;;;;5048823;28;20878;-76
2022/08/20 05:40:29;;;;;;;24.07;19.93;;;;;;;;;;5049160;28;20197;-70
2022/08/20 05:42:55;;;;;;;22.27;19.77;;;;;;;;;;5049077;28;20197;-71
2022/08/20 05:45:22;;;;;;;23.20;20.90;;;;;;;;;;5049811;28;21042;-70
2022/08/20 05:47:49;;;;;;;24.87;22.20;;;;;;;;;;5049530;28;20236;-70
2022/08/20 05:50:34;;;;;;;25.07;21.63;;;;;;;;;;5034335;28;20187;-71
2022/08/20 05:53:01;;;;;;;23.13;20.73;;;;;;;;;;5048109;28;20312;-70
2022/08/20 05:55:28;;;;;;;23.87;21.37;;;;;;;;;;5049590;28;20272;-74
2022/08/20 05:58:02;;;;;;;28.27;22.63;;;;;;;;;;5031344;28;20638;-74
2022/08/20 06:00:30;;;;;;;23.90;21.40;;;;;;;;;;5031376;28;20198;-74
2022/08/20 06:05:56;;;;;;;23.90;21.43;;;;;;;;;;4998736;28;20182;-72
2022/08/20 06:08:23;;;;;;;25.00;22.30;;;;;;;;;;5048883;28;20276;-72
2022/08/20 06:10:50;;;;;;;23.67;21.10;;;;;;;;;;5049413;28;20178;-77
2022/08/20 06:13:17;;;;;;;26.43;22.80;;;;;;;;;;5049543;28;20270;-74
2022/08/20 06:15:44;;;;;;;27.27;23.40;;;;;;;;;;5049263;28;20236;-75
2022/08/20 06:18:11;;;;;;;25.00;22.50;;;;;;;;;;5031637;28;20190;-73
2022/08/20 06:20:54;;;;;;;26.13;23.53;;;;;;;;;;5044942;28;20237;-78
2022/08/20 06:23:24;;;;;;;26.93;24.23;;;;;;;;;;5047975;28;20244;-77
2022/08/20 06:25:51;;;;;;;27.17;24.13;;;;;;;;;;5031706;28;20183;-77
2022/08/20 06:28:18;;;;;;;27.60;24.77;;;;;;;;;;5049145;28;20667;-77
2022/08/20 06:30:44;;;;;;;27.87;24.87;;;;;;;;;;5031355;28;20183;-78
2022/08/20 06:33:12;;;;;;;26.50;23.80;;;;;;;;;;5029454;28;20219;-78
2022/08/20 06:35:39;;;;;;;27.80;24.80;;;;;;;;;;5031408;28;20724;-78
2022/08/20 06:38:05;;;;;;;30.30;27.10;;;;;;;;;;5031226;28;20202;-77
2022/08/20 06:40:33;;;;;;;29.70;26.70;;;;;;;;;;5031718;28;20214;-77
2022/08/20 06:43:17;;;;;;;30.97;27.63;;;;;;;;;;5053273;28;20186;-77
2022/08/20 06:45:44;;;;;;;31.97;27.80;;;;;;;;;;5052954;28;20204;-78
2022/08/20 06:48:29;;;;;;;31.43;28.23;;;;;;;;;;5051937;28;20176;-78
2022/08/20 06:50:55;;;;;;;30.97;27.30;;;;;;;;;;5034979;28;20244;-77
2022/08/20 06:53:22;;;;;;;30.50;27.47;;;;;;;;;;5051868;28;20210;-78
2022/08/20 06:55:50;;;;;;;29.30;26.23;;;;;;;;;;5053082;28;20207;-77
2022/08/20 06:58:17;;;;;;;30.27;27.10;;;;;;;;;;5051694;28;20191;-77
2022/08/20 07:01:05;;;;;;;31.97;28.50;;;;;;;;;;5052743;28;20253;-76
2022/08/20 07:03:40;;;;;;;31.77;28.50;;;;;;;;;;5052180;28;20258;-67
2022/08/20 07:06:20;;;;;;;31.47;28.27;;;;;;;;;;5052182;28;20184;-67
2022/08/20 07:08:47;;;;;;;31.47;28.27;;;;;;;;;;5052085;28;20243;-67
2022/08/20 07:11:14;;;;;;;30.90;27.63;;;;;;;;;;5051205;28;20191;-68
2022/08/20 07:13:40;;;;;;;31.40;28.07;;;;;;;;;;5052270;28;20198;-68
2022/08/20 07:16:07;;;;;;;32.07;28.87;;;;;;;;;;5052538;28;20657;-68
2022/08/20 07:18:34;;;;;;;30.37;27.37;;;;;;;;;;5052103;28;20339;-68
2022/08/20 07:21:01;;;;;;;31.60;28.20;;;;;;;;;;5051919;28;20273;-68
2022/08/20 07:23:30;;;;;;;32.93;29.43;;;;;;;;;;5050804;28;20248;-67
2022/08/20 07:25:57;;;;;;;31.10;27.93;;;;;;;;;;5051758;28;20200;-66
2022/08/20 07:28:24;;;;;;;29.83;26.83;;;;;;;;;;5052476;28;20582;-68
2022/08/20 07:33:40;;;;;;;31.80;28.50;;;;;;;;;;5051550;28;20187;-68
2022/08/20 07:36:07;;;;;;;30.83;27.60;;;;;;;;;;5033997;28;20192;-68
2022/08/20 07:38:34;;;;;;;30.30;27.17;;;;;;;;;;5052131;28;20650;-68
2022/08/20 07:41:01;;;;;;;31.10;28.07;;;;;;;;;;5051599;28;20223;-68
2022/08/20 07:43:28;;;;;;;31.10;27.80;;;;;;;;;;5051881;28;20179;-67
2022/08/20 07:45:56;;;;;;;30.63;27.43;;;;;;;;;;5050340;28;20665;-68
2022/08/20 07:48:24;;;;;;;31.40;28.17;;;;;;;;;;5051559;28;20238;-68
2022/08/20 07:50:57;;;;;;;30.37;27.13;;;;;;;;;;5051137;28;20282;-68
2022/08/20 07:53:24;;;;;;;30.17;27.13;;;;;;;;;;5051018;28;20211;-68
2022/08/20 07:56:12;;;;;;;30.37;27.27;;;;;;;;;;5050502;28;20262;-67
2022/08/20 07:58:40;;;;;;;30.83;27.83;;;;;;;;;;5050162;28;20191;-68
2022/08/20 08:01:09;;;;;;;29.87;26.77;;;;;;;;;;5050650;28;20679;-68
2022/08/20 08:03:36;;;;;;;30.03;27.07;;;;;;;;;;5043490;28;20215;-68
2022/08/20 08:06:19;;;;;;;30.13;27.03;;;;;;;;;;5050958;28;20194;-69
2022/08/20 08:08:56;;;;;;;29.90;26.70;;;;;;;;;;5034330;28;20314;-68
2022/08/20 08:11:23;;;;;;;30.07;26.93;;;;;;;;;;5033330;28;20213;-68
2022/08/20 08:13:50;;;;;;;30.27;27.17;;;;;;;;;;5033421;28;20186;-68
2022/08/20 08:16:18;;;;;;;30.33;27.27;;;;;;;;;;5051253;28;21046;-68
2022/08/20 08:19:04;;;;;;;31.53;28.43;;;;;;;;;;5048366;28;20205;-68
2022/08/20 08:21:31;;;;;;;30.90;27.63;;;;;;;;;;5051200;28;20186;-68
2022/08/20 08:23:58;;;;;;;31.43;28.20;;;;;;;;;;5028785;28;20205;-68
2022/08/20 08:26:27;;;;;;;32.73;29.23;;;;;;;;;;5048108;28;20200;-68
2022/08/20 08:28:55;;;;;;;30.47;27.30;;;;;;;;;;5045583;28;20627;-68
2022/08/20 08:31:24;;;;;;;30.40;26.60;;;;;;;;;;5033450;28;20187;-68
2022/08/20 08:33:51;;;;;;;28.77;24.23;;;;;;;;;;5026160;28;20192;-67
2022/08/20 08:36:18;;;;;;;31.73;24.87;;;;;;;;;;5049856;28;20195;-67
2022/08/20 08:38:45;;;;;;;28.00;23.83;;;;;;;;;;5050020;28;20290;-70
2022/08/20 08:41:38;;;;;;;31.77;26.70;;;;;;;;;;5032740;28;20205;-69
2022/08/20 08:44:11;;;;;;;27.80;24.87;;;;;;;;;;5038342;28;20198;-69
2022/08/20 08:47:03;;;;;;;30.17;26.00;;;;;;;;;;5049488;28;20170;-68
2022/08/20 08:49:30;;;;;;;28.43;25.43;;;;;;;;;;5050872;28;20289;-69
2022/08/20 08:52:19;;;;;;;29.17;25.80;;;;;;;;;;5049072;28;20241;-69
2022/08/20 08:54:47;;;;;;;26.37;23.60;;;;;;;;;;5050398;28;20190;-69
2022/08/20 08:57:31;;;;;;;25.20;20.97;;;;;;;;;;5049570;28;20179;-69
2022/08/20 09:00:06;;;;;;;24.70;19.17;;;;;;;;;;5048402;28;20227;-69
2022/08/20 09:02:34;;;;;;;25.33;18.83;;;;;;;;;;5048955;28;20605;-70
2022/08/20 09:05:01;;;;;;;23.53;19.10;;;;;;;;;;5047709;28;21003;-70
2022/08/20 09:07:30;;;;;;;21.90;18.50;;;;;;;;;;5050280;28;20230;-67
2022/08/20 09:10:16;;;;;;;21.40;17.37;;;;;;;;;;5050169;28;20302;-69
2022/08/20 09:12:49;;;;;;;20.20;15.83;;;;;;;;;;5033241;28;20713;-70
2022/08/20 09:15:17;;;;;;;19.17;15.67;;;;;;;;;;5032276;28;20187;-70
2022/08/20 09:17:44;;;;;;;21.63;16.07;;;;;;;;;;5015890;28;20731;-62
2022/08/20 09:20:11;;;;;;;22.13;16.97;;;;;;;;;;5050071;28;20191;-62
2022/08/20 09:22:38;;;;;;;27.97;16.50;;;;;;;;;;5049992;28;20240;-62
2022/08/20 09:25:05;;;;;;;22.33;17.13;;;;;;;;;;5048851;28;20981;-60
2022/08/20 09:27:32;;;;;;;23.17;17.37;;;;;;;;;;5049566;28;20549;-60
2022/08/20 09:29:59;;;;;;;21.27;16.83;;;;;;;;;;5049360;28;20245;-61
2022/08/20 09:32:28;;;;;;;21.00;16.47;;;;;;;;;;5049423;28;20234;-61
2022/08/20 09:34:55;;;;;;;26.57;16.17;;;;;;;;;;5049052;28;20186;-61
2022/08/20 09:37:39;;;;;;;21.77;15.77;;;;;;;;;;5049692;28;20170;-61
2022/08/20 09:40:07;;;;;;;25.17;15.80;;;;;;;;;;5049519;28;20694;-61
2022/08/20 09:42:52;;;;;;;23.07;16.03;;;;;;;;;;5049423;28;20174;-61
2022/08/20 09:45:19;;;;;;;21.77;16.30;;;;;;;;;;5049154;28;20274;-61
2022/08/20 09:48:03;;;;;;;18.40;14.07;;;;;;;;;;5049410;28;20182;-62
2022/08/20 09:50:36;;;;;;;19.53;14.70;;;;;;;;;;5048977;28;20290;-62
2022/08/20 09:53:20;;;;;;;22.37;15.97;;;;;;;;;;5049298;28;20561;-62
2022/08/20 09:55:53;;;;;;;20.37;16.07;;;;;;;;;;5049318;28;20266;-62
2022/08/20 09:58:20;;;;;;;22.13;16.77;;;;;;;;;;5048200;28;20256;-63
2022/08/20 10:00:47;;;;;;;23.70;15.53;;;;;;;;;;5049309;28;20202;-62
2022/08/20 10:03:13;;;;;;;17.93;16.10;;;;;;;;;;5048234;28;20562;-62
2022/08/20 10:05:40;;;;;;;23.73;16.00;;;;;;;;;;5048580;28;20186;-63
2022/08/20 10:08:07;;;;;;;23.27;16.20;;;;;;;;;;5049188;28;20192;-62
2022/08/20 10:10:34;;;;;;;21.83;16.50;;;;;;;;;;5048504;28;20222;-62
2022/08/20 10:13:01;;;;;;;21.77;16.33;;;;;;;;;;5047928;28;20330;-62
2022/08/20 10:15:31;;;;;;;23.70;17.03;;;;;;;;;;5047954;28;20271;-64
2022/08/20 10:17:58;;;;;;;21.50;17.23;;;;;;;;;;5046489;28;20199;-62
2022/08/20 10:20:25;;;;;;;21.93;16.80;;;;;;;;;;5029878;28;20199;-62
2022/08/20 10:22:52;;;;;;;20.67;18.00;;;;;;;;;;5048061;28;20265;-62
2022/08/20 10:25:19;;;;;;;23.50;18.57;;;;;;;;;;5048104;28;20340;-61
2022/08/20 10:27:46;;;;;;;24.17;17.47;;;;;;;;;;5030245;28;20290;-62
2022/08/20 10:30:13;;;;;;;21.77;17.40;;;;;;;;;;5048148;28;20179;-62
2022/08/20 10:32:41;;;;;;;36.10;18.37;;;;;;;;;;5047781;28;20211;-62
2022/08/20 10:35:08;;;;;;;20.40;17.40;;;;;;;;;;5029883;28;20190;-62
2022/08/20 10:37:35;;;;;;;25.03;17.17;;;;;;;;;;5047962;28;20916;-62
2022/08/20 10:40:03;;;;;;;24.13;17.00;;;;;;;;;;5047589;28;20668;-62
2022/08/20 10:42:29;;;;;;;23.83;17.87;;;;;;;;;;5030370;28;20198;-62
2022/08/20 10:44:56;;;;;;;21.83;17.90;;;;;;;;;;5047740;28;20842;-62
2022/08/20 10:47:23;;;;;;;20.33;17.80;;;;;;;;;;5048130;28;20270;-63
2022/08/20 10:50:09;;;;;;;23.37;18.47;;;;;;;;;;5048025;28;20487;-62
2022/08/20 10:52:36;;;;;;;24.57;16.97;;;;;;;;;;5048140;28;20238;-62
2022/08/20 10:55:04;;;;;;;18.67;16.67;;;;;;;;;;5047842;28;20195;-62
2022/08/20 10:57:30;;;;;;;45.07;22.53;;;;;;;;;;5047917;28;20273;-62
2022/08/20 10:59:58;;;;;;;22.37;17.73;;;;;;;;;;5047136;28;20250;-62
2022/08/20 11:02:26;;;;;;;29.53;16.83;;;;;;;;;;5047829;28;20210;-64
2022/08/20 11:04:54;;;;;;;21.73;18.17;;;;;;;;;;5045527;28;20693;-64
2022/08/20 11:07:24;;;;;;;22.63;17.93;;;;;;;;;;5047800;28;20274;-65
2022/08/20 11:10:11;;;;;;;30.33;17.90;;;;;;;;;;4995575;28;1510858;-63
2022/08/20 11:12:39;;;;;;;27.27;21.67;;;;;;;;;;5047791;28;20699;-62
2022/08/20 11:15:11;;;;;;;26.23;22.63;;;;;;;;;;5048413;28;20225;-63
2022/08/20 11:17:39;;;;;;;23.97;21.33;;;;;;;;;;5048332;28;20661;-63
2022/08/20 11:20:06;;;;;;;23.87;20.40;;;;;;;;;;5030650;28;20286;-62
2022/08/20 11:22:33;;;;;;;24.17;21.57;;;;;;;;;;5048386;28;20220;-63
2022/08/20 11:25:01;;;;;;;24.57;22.00;;;;;;;;;;5047765;28;20195;-71
2022/08/20 11:27:37;;;;;;;27.63;22.27;;;;;;;;;;5041282;28;20704;-71
2022/08/20 11:30:05;;;;;;;25.00;22.43;;;;;;;;;;5051948;28;20188;-72
2022/08/20 11:32:32;;;;;;;25.93;23.27;;;;;;;;;;5050595;28;20201;-71
2022/08/20 11:34:59;;;;;;;35.97;31.23;;;;;;;;;;5051189;28;20208;-71
2022/08/20 11:37:47;;;;;;;27.60;24.70;;;;;;;;;;5022640;28;20203;-70
2022/08/20 11:40:15;;;;;;;26.33;23.33;;;;;;;;;;5034133;28;20214;-63
2022/08/20 11:42:42;;;;;;;26.80;23.90;;;;;;;;;;5050436;28;20193;-64
2022/08/20 11:45:29;;;;;;;27.50;22.83;;;;;;;;;;5051659;28;20651;-63
2022/08/20 11:48:03;;;;;;;27.43;21.20;;;;;;;;;;5051554;28;20219;-63
2022/08/20 11:50:29;;;;;;;25.57;22.93;;;;;;;;;;5051521;28;20707;-63
2022/08/20 11:52:56;;;;;;;26.73;23.53;;;;;;;;;;5051483;28;20220;-63
2022/08/20 11:55:24;;;;;;;30.10;26.83;;;;;;;;;;5050546;28;20191;-63
2022/08/20 11:57:56;;;;;;;30.57;27.40;;;;;;;;;;5051565;28;20242;-63
2022/08/20 12:00:26;;;;;;;31.73;28.53;;;;;;;;;;5051314;28;20187;-63
2022/08/20 12:03:11;;;;;;;30.93;27.70;;;;;;;;;;5051630;28;20596;-62
2022/08/20 12:05:38;;;;;;;31.10;28.03;;;;;;;;;;5050785;28;20178;-63
2022/08/20 12:08:22;;;;;;;30.80;27.73;;;;;;;;;;5049938;28;20709;-63
2022/08/20 12:10:56;;;;;;;31.90;28.53;;;;;;;;;;5051257;28;20249;-63
2022/08/20 12:13:41;;;;;;;30.80;27.50;;;;;;;;;;5051397;28;20711;-63
2022/08/20 12:16:15;;;;;;;32.47;29.07;;;;;;;;;;5033570;28;20195;-64
2022/08/20 12:18:59;;;;;;;31.53;28.37;;;;;;;;;;5049596;28;20654;-64
2022/08/20 12:21:25;;;;;;;34.50;30.23;;;;;;;;;;5051037;28;20278;-63
2022/08/20 12:24:10;;;;;;;32.50;29.20;;;;;;;;;;5050989;28;20174;-63
2022/08/20 12:26:37;;;;;;;33.53;30.13;;;;;;;;;;5033088;28;20302;-64
2022/08/20 12:29:04;;;;;;;32.87;29.40;;;;;;;;;;5050839;28;20198;-63
2022/08/20 12:31:31;;;;;;;34.27;30.77;;;;;;;;;;5051196;28;20190;-64
2022/08/20 12:33:58;;;;;;;35.03;31.37;;;;;;;;;;5050350;28;21202;-63
2022/08/20 12:36:42;;;;;;;33.60;30.10;;;;;;;;;;5041936;28;20526;-63
2022/08/20 12:39:09;;;;;;;33.90;30.47;;;;;;;;;;5049556;28;20221;-65
2022/08/20 12:41:36;;;;;;;33.90;30.40;;;;;;;;;;5032568;28;20724;-63
2022/08/20 12:44:05;;;;;;;33.83;30.33;;;;;;;;;;5050694;28;20278;-64
2022/08/20 12:46:38;;;;;;;31.47;28.37;;;;;;;;;;5050903;28;20584;-64
2022/08/20 12:49:05;;;;;;;31.83;28.43;;;;;;;;;;5050549;28;20277;-63
2022/08/20 12:51:32;;;;;;;31.07;27.87;;;;;;;;;;5050325;28;20201;-64
2022/08/20 12:53:58;;;;;;;30.97;27.60;;;;;;;;;;5050220;28;20301;-63
2022/08/20 12:56:25;;;;;;;29.57;26.57;;;;;;;;;;5050191;28;20282;-63
2022/08/20 12:58:52;;;;;;;29.87;26.67;;;;;;;;;;5050480;28;20335;-63
2022/08/20 13:01:18;;;;;;;29.97;26.60;;;;;;;;;;5050481;28;20202;-63
2022/08/20 13:03:45;;;;;;;28.90;25.60;;;;;;;;;;5050252;28;20183;-63
2022/08/20 13:06:12;;;;;;;29.97;26.30;;;;;;;;;;5050279;28;20260;-63
2022/08/20 13:08:39;;;;;;;35.87;25.43;;;;;;;;;;5035803;28;20655;-63
2022/08/20 13:11:05;;;;;;;30.30;25.30;;;;;;;;;;5049877;28;20257;-65
2022/08/20 13:13:32;;;;;;;28.37;25.57;;;;;;;;;;5050176;28;20219;-64
2022/08/20 13:15:59;;;;;;;29.63;26.53;;;;;;;;;;5049784;28;20270;-62
2022/08/20 13:18:26;;;;;;;28.90;25.93;;;;;;;;;;5050052;28;20198;-62
2022/08/20 13:20:53;;;;;;;29.23;26.13;;;;;;;;;;5048747;28;20530;-63
2022/08/20 13:23:20;;;;;;;28.40;25.53;;;;;;;;;;5049534;28;20187;-63
2022/08/20 13:25:46;;;;;;;30.47;27.20;;;;;;;;;;5049917;28;20199;-63
2022/08/20 13:28:13;;;;;;;27.27;24.40;;;;;;;;;;5032298;28;20674;-63
2022/08/20 13:30:40;;;;;;;26.60;24.00;;;;;;;;;;5049611;28;20240;-63
2022/08/20 13:33:07;;;;;;;25.37;22.87;;;;;;;;;;5049580;28;20292;-63
2022/08/20 13:35:34;;;;;;;27.00;24.30;;;;;;;;;;5049582;28;20202;-62
2022/08/20 13:38:18;;;;;;;25.80;23.20;;;;;;;;;;5049128;28;20177;-63
2022/08/20 13:40:45;;;;;;;24.40;22.00;;;;;;;;;;5049688;28;20218;-68
2022/08/20 13:43:14;;;;;;;23.90;21.30;;;;;;;;;;5049739;28;20283;-62
2022/08/20 13:45:41;;;;;;;24.57;21.93;;;;;;;;;;5049593;28;20234;-63
2022/08/20 13:48:08;;;;;;;23.13;20.83;;;;;;;;;;5049329;28;20195;-63
2022/08/20 13:50:41;;;;;;;22.20;19.97;;;;;;;;;;5030870;28;20264;-63
2022/08/20 13:53:07;;;;;;;24.30;21.17;;;;;;;;;;5031555;28;20296;-63
2022/08/20 13:55:34;;;;;;;23.20;20.90;;;;;;;;;;5048308;28;20982;-63
2022/08/20 13:58:04;;;;;;;22.47;20.20;;;;;;;;;;5048424;28;20205;-60
2022/08/20 14:00:31;;;;;;;23.83;21.27;;;;;;;;;;5049326;28;20740;-62
2022/08/20 14:02:59;;;;;;;21.47;19.37;;;;;;;;;;5048736;28;20231;-61
2022/08/20 14:05:26;;;;;;;27.87;23.97;;;;;;;;;;5031211;28;20191;-60
2022/08/20 14:07:53;;;;;;;27.93;24.87;;;;;;;;;;5031314;28;20194;-61
2022/08/20 14:10:23;;;;;;;28.83;24.57;;;;;;;;;;5049020;28;20616;-62
2022/08/20 14:12:50;;;;;;;31.80;25.90;;;;;;;;;;5048841;28;20195;-61
2022/08/20 14:15:16;;;;;;;31.53;26.17;;;;;;;;;;5048444;28;20210;-64
2022/08/20 14:17:51;;;;;;;30.53;24.77;;;;;;;;;;5047509;28;20597;-62
2022/08/20 14:20:18;;;;;;;28.30;24.97;;;;;;;;;;5048560;28;20255;-62
2022/08/20 14:22:45;;;;;;;28.20;24.07;;;;;;;;;;5048966;28;20298;-61
2022/08/20 14:25:13;;;;;;;30.03;26.70;;;;;;;;;;5049201;28;20197;-61
2022/08/20 14:27:39;;;;;;;29.43;25.23;;;;;;;;;;5048547;28;20182;-61
2022/08/20 14:30:07;;;;;;;32.90;25.90;;;;;;;;;;5048820;28;20218;-62
2022/08/20 14:32:34;;;;;;;28.33;24.13;;;;;;;;;;5048408;28;21098;-61
2022/08/20 14:35:01;;;;;;;31.83;24.23;;;;;;;;;;5025655;28;20262;-69
2022/08/20 14:37:32;;;;;;;29.37;23.20;;;;;;;;;;5014604;28;20199;-69
2022/08/20 14:39:59;;;;;;;30.13;23.33;;;;;;;;;;5048472;28;20202;-76
2022/08/20 14:42:27;;;;;;;27.80;24.23;;;;;;;;;;5031224;28;20289;-76
2022/08/20 14:44:54;;;;;;;30.57;24.40;;;;;;;;;;5047833;28;20214;-77
2022/08/20 14:47:22;;;;;;;26.63;23.27;;;;;;;;;;5048971;28;20190;-78
2022/08/20 14:49:49;;;;;;;27.07;22.97;;;;;;;;;;5047835;28;20200;-77
2022/08/20 14:52:16;;;;;;;27.07;22.47;;;;;;;;;;5048887;28;20546;-76
2022/08/20 14:54:44;;;;;;;23.97;21.37;;;;;;;;;;5031403;28;20297;-77